createdAt,value
2023-05-23T00:00:16.877Z,17.69
2023-05-23T00:02:44.949Z,17.66
2023-05-23T00:05:12.617Z,17.70
2023-05-23T00:07:40.064Z,17.71
2023-05-23T00:10:07.824Z,17.71
2023-05-23T00:12:35.266Z,17.70
2023-05-23T00:15:02.986Z,17.70
2023-05-23T00:17:30.543Z,17.71
2023-05-23T00:19:57.933Z,17.78
2023-05-23T00:22:25.490Z,17.69
2023-05-23T00:24:53.230Z,17.63
2023-05-23T00:27:20.635Z,17.60
2023-05-23T00:29:48.076Z,17.56
2023-05-23T00:32:15.584Z,17.54
2023-05-23T00:34:43.031Z,17.52
2023-05-23T00:37:11.881Z,17.44
2023-05-23T00:39:39.281Z,17.46
2023-05-23T00:42:08.033Z,17.53
2023-05-23T00:44:35.632Z,17.47
2023-05-23T00:47:03.509Z,17.40
2023-05-23T00:49:31.094Z,17.43
2023-05-23T00:51:58.588Z,17.35
2023-05-23T00:54:29.657Z,17.29
2023-05-23T00:56:57.222Z,17.23
2023-05-23T00:59:27.195Z,17.21
2023-05-23T01:01:57.606Z,17.21
2023-05-23T01:04:28.519Z,17.23
2023-05-23T01:06:57.077Z,17.22
2023-05-23T01:09:29.626Z,17.23
2023-05-23T01:12:22.834Z,17.30
2023-05-23T01:15:02.848Z,17.24
2023-05-23T01:17:50.904Z,17.22
2023-05-23T01:20:31.722Z,17.26
2023-05-23T01:23:36.420Z,17.23
2023-05-23T01:26:41.440Z,17.22
2023-05-23T01:29:14.907Z,17.22
2023-05-23T01:31:46.574Z,17.18
2023-05-23T01:34:14.786Z,17.15
2023-05-23T01:36:44.023Z,17.16
2023-05-23T01:39:12.485Z,17.11
2023-05-23T01:41:39.991Z,17.08
2023-05-23T01:44:07.841Z,17.09
2023-05-23T01:46:36.377Z,17.09
2023-05-23T01:49:06.496Z,17.08
2023-05-23T01:51:34.435Z,17.12
2023-05-23T01:54:01.964Z,17.11
2023-05-23T01:56:30.517Z,17.13
2023-05-23T01:58:58.365Z,17.19
2023-05-23T02:01:25.834Z,17.14
2023-05-23T02:03:53.378Z,17.14
2023-05-23T02:06:20.830Z,17.15
2023-05-23T02:08:48.372Z,17.12
2023-05-23T02:11:16.189Z,17.08
2023-05-23T02:13:43.776Z,17.03
2023-05-23T02:16:11.690Z,17.12
2023-05-23T02:18:39.751Z,17.06
2023-05-23T02:21:07.320Z,17.04
2023-05-23T02:23:34.759Z,17.03
2023-05-23T02:26:02.232Z,16.98
2023-05-23T02:28:29.742Z,16.95
2023-05-23T02:30:57.316Z,17.01
2023-05-23T02:33:25.087Z,16.96
2023-05-23T02:35:52.771Z,16.92
2023-05-23T02:38:20.883Z,16.91
2023-05-23T02:40:50.563Z,16.88
2023-05-23T02:43:18.104Z,16.90
2023-05-23T02:45:45.771Z,16.91
2023-05-23T02:48:13.432Z,16.87
2023-05-23T02:50:41.106Z,16.86
2023-05-23T02:53:08.554Z,16.94
2023-05-23T02:55:36.811Z,16.96
2023-05-23T02:58:06.001Z,16.84
2023-05-23T03:00:33.589Z,16.85
2023-05-23T03:03:01.852Z,16.89
2023-05-23T03:05:32.761Z,16.95
2023-05-23T03:08:00.388Z,16.90
2023-05-23T03:10:28.000Z,16.93
2023-05-23T03:12:55.495Z,16.90
2023-05-23T03:15:22.981Z,16.90
2023-05-23T03:17:50.460Z,16.77
2023-05-23T03:20:17.952Z,16.82
2023-05-23T03:22:45.900Z,16.74
2023-05-23T03:25:14.778Z,16.75
2023-05-23T03:27:42.305Z,16.65
2023-05-23T03:30:11.010Z,16.70
2023-05-23T03:32:38.530Z,16.64
2023-05-23T03:35:06.449Z,16.62
2023-05-23T03:37:33.880Z,16.60
2023-05-23T03:40:01.339Z,16.62
2023-05-23T03:42:31.327Z,16.58
2023-05-23T03:44:58.790Z,16.58
2023-05-23T03:47:26.412Z,16.56
2023-05-23T03:49:53.894Z,16.54
2023-05-23T03:52:21.772Z,16.54
2023-05-23T03:54:49.185Z,16.51
2023-05-23T03:57:16.637Z,16.50
2023-05-23T03:59:44.320Z,16.47
2023-05-23T04:02:11.891Z,16.42
2023-05-23T04:04:39.886Z,16.40
2023-05-23T04:07:09.403Z,16.42
2023-05-23T04:09:36.909Z,16.49
2023-05-23T04:12:04.518Z,16.47
2023-05-23T04:14:33.722Z,16.46
2023-05-23T04:17:01.715Z,16.45
2023-05-23T04:19:29.238Z,16.43
2023-05-23T04:21:56.754Z,16.43
2023-05-23T04:24:24.255Z,16.47
2023-05-23T04:26:51.633Z,16.46
2023-05-23T04:29:19.140Z,16.43
2023-05-23T04:31:46.844Z,16.46
2023-05-23T04:34:14.426Z,16.38
2023-05-23T04:36:44.788Z,16.38
2023-05-23T04:39:12.381Z,16.31
2023-05-23T04:41:40.320Z,16.32
2023-05-23T04:44:10.104Z,16.31
2023-05-23T04:46:42.093Z,16.30
2023-05-23T04:51:56.560Z,16.29
2023-05-23T04:54:24.106Z,16.27
2023-05-23T04:56:51.803Z,16.33
2023-05-23T04:59:19.292Z,16.34
2023-05-23T05:01:46.977Z,16.37
2023-05-23T05:04:14.845Z,16.35
2023-05-23T05:06:42.399Z,16.35
2023-05-23T05:09:10.296Z,16.42
2023-05-23T05:11:37.949Z,16.43
2023-05-23T05:14:05.498Z,16.44
2023-05-23T05:16:33.050Z,16.47
2023-05-23T05:19:00.637Z,16.55
2023-05-23T05:21:28.048Z,16.59
2023-05-23T05:23:55.429Z,16.69
2023-05-23T05:26:23.515Z,16.76
2023-05-23T05:28:51.837Z,16.73
2023-05-23T05:31:19.915Z,16.76
2023-05-23T05:33:47.400Z,16.70
2023-05-23T05:36:14.861Z,16.78
2023-05-23T05:38:42.477Z,16.74
2023-05-23T05:41:09.909Z,16.61
2023-05-23T05:43:37.585Z,16.66
2023-05-23T05:46:05.295Z,16.77
2023-05-23T05:48:33.234Z,16.79
2023-05-23T05:51:01.332Z,16.80
2023-05-23T05:53:28.751Z,17.00
2023-05-23T05:55:56.301Z,17.03
2023-05-23T05:58:23.771Z,17.03
2023-05-23T06:00:51.199Z,16.97
2023-05-23T06:03:18.878Z,17.02
2023-05-23T06:05:46.417Z,16.96
2023-05-23T06:08:13.965Z,16.84
2023-05-23T06:10:41.761Z,16.92
2023-05-23T06:13:09.421Z,16.89
2023-05-23T06:15:36.870Z,16.95
2023-05-23T06:18:04.412Z,16.80
2023-05-23T06:20:31.812Z,16.92
2023-05-23T06:23:00.694Z,16.91
2023-05-23T06:25:28.308Z,16.85
2023-05-23T06:27:56.134Z,16.79
2023-05-23T06:30:24.460Z,16.75
2023-05-23T06:32:51.955Z,16.87
2023-05-23T06:35:19.374Z,16.83
2023-05-23T06:37:46.927Z,16.85
2023-05-23T06:40:14.803Z,16.88
2023-05-23T06:42:42.761Z,16.87
2023-05-23T06:45:10.810Z,16.88
2023-05-23T06:47:38.396Z,16.83
2023-05-23T06:50:06.322Z,16.80
2023-05-23T06:52:33.720Z,16.88
2023-05-23T06:55:01.176Z,16.88
2023-05-23T06:57:28.635Z,16.88
2023-05-23T06:59:56.282Z,16.80
2023-05-23T07:02:24.018Z,16.86
2023-05-23T07:04:51.414Z,16.86
2023-05-23T07:07:18.874Z,16.87
2023-05-23T07:09:46.755Z,16.73
2023-05-23T07:12:14.557Z,16.76
2023-05-23T07:14:42.001Z,16.73
2023-05-23T07:17:09.711Z,16.88
2023-05-23T07:19:37.763Z,16.88
2023-05-23T07:22:05.665Z,16.98
2023-05-23T07:24:33.311Z,17.10
2023-05-23T07:27:00.983Z,17.20
2023-05-23T07:29:28.583Z,17.17
2023-05-23T07:31:56.844Z,17.30
2023-05-23T07:34:24.432Z,17.41
2023-05-23T07:36:52.148Z,17.30
2023-05-23T07:39:22.387Z,17.35
2023-05-23T07:41:50.317Z,17.36
2023-05-23T07:44:20.693Z,17.56
2023-05-23T07:46:49.942Z,17.51
2023-05-23T07:49:17.439Z,17.55
2023-05-23T07:51:44.892Z,17.59
2023-05-23T07:54:13.622Z,17.65
2023-05-23T07:56:43.630Z,17.71
2023-05-23T07:59:11.139Z,17.47
2023-05-23T08:01:38.595Z,17.57
2023-05-23T08:04:06.611Z,17.41
2023-05-23T08:06:34.079Z,17.61
2023-05-23T08:09:02.224Z,17.48
2023-05-23T08:11:30.517Z,17.43
2023-05-23T08:14:01.463Z,17.51
2023-05-23T08:16:29.092Z,17.58
2023-05-23T08:18:56.496Z,17.49
2023-05-23T08:21:24.886Z,17.68
2023-05-23T08:23:52.358Z,17.52
2023-05-23T08:26:19.491Z,17.59
2023-05-23T08:28:47.234Z,17.49
2023-05-23T08:31:14.662Z,17.62
2023-05-23T08:33:42.686Z,17.70
2023-05-23T08:36:10.183Z,17.49
2023-05-23T08:38:37.626Z,17.65
2023-05-23T08:41:17.268Z,17.69
2023-05-23T08:43:44.827Z,17.74
2023-05-23T08:46:13.423Z,17.56
2023-05-23T08:48:41.821Z,17.66
2023-05-23T08:51:13.858Z,17.88
2023-05-23T08:53:50.568Z,17.98
2023-05-23T08:56:20.337Z,18.48
2023-05-23T08:58:48.081Z,18.76
2023-05-23T09:01:18.453Z,18.93
2023-05-23T09:03:46.075Z,18.79
2023-05-23T09:06:13.556Z,19.30
2023-05-23T09:08:41.039Z,19.62
2023-05-23T09:11:09.103Z,19.62
2023-05-23T09:13:36.728Z,19.33
2023-05-23T09:16:10.641Z,19.62
2023-05-23T09:18:40.238Z,20.06
2023-05-23T09:21:09.924Z,19.57
2023-05-23T09:23:40.295Z,19.65
2023-05-23T09:26:10.532Z,20.16
2023-05-23T09:28:40.324Z,19.91
2023-05-23T09:31:08.839Z,20.06
2023-05-23T09:33:50.903Z,20.30
2023-05-23T09:36:18.757Z,20.35
2023-05-23T09:38:48.903Z,19.86
2023-05-23T09:41:16.432Z,19.72
2023-05-23T09:43:54.638Z,19.76
2023-05-23T09:46:22.871Z,19.99
2023-05-23T09:48:52.313Z,19.97
2023-05-23T09:51:21.710Z,19.73
2023-05-23T09:53:50.280Z,20.15
2023-05-23T09:56:18.268Z,20.32
2023-05-23T09:58:49.047Z,20.47
2023-05-23T10:01:17.561Z,20.47
2023-05-23T10:03:59.986Z,20.42
2023-05-23T10:06:29.373Z,20.23
2023-05-23T10:09:05.704Z,20.03
2023-05-23T10:11:36.045Z,19.91
2023-05-23T10:14:09.680Z,19.85
2023-05-23T10:17:04.016Z,19.74
2023-05-23T10:19:45.122Z,19.71
2023-05-23T10:22:15.209Z,19.80
2023-05-23T10:24:43.678Z,19.70
2023-05-23T10:27:11.317Z,19.77
2023-05-23T10:29:38.814Z,19.38
2023-05-23T10:32:07.566Z,19.39
2023-05-23T10:35:11.582Z,19.28
2023-05-23T10:38:13.981Z,19.41
2023-05-23T10:41:12.763Z,19.42
2023-05-23T10:44:26.853Z,19.86
2023-05-23T10:47:02.466Z,20.07
2023-05-23T10:52:16.944Z,20.15
2023-05-23T10:54:51.336Z,19.84
2023-05-23T10:57:27.911Z,19.88
2023-05-23T10:59:57.504Z,20.03
2023-05-23T11:02:29.348Z,20.10
2023-05-23T11:05:26.946Z,20.32
2023-05-23T11:08:16.258Z,20.10
2023-05-23T11:11:09.602Z,19.82
2023-05-23T11:14:02.888Z,19.64
2023-05-23T11:16:32.827Z,19.83
2023-05-23T11:19:19.023Z,19.66
2023-05-23T11:21:53.433Z,19.63
2023-05-23T11:24:20.941Z,19.62
2023-05-23T11:27:00.482Z,19.61
2023-05-23T11:29:31.779Z,19.58
2023-05-23T11:31:59.254Z,19.81
2023-05-23T11:34:27.188Z,19.99
2023-05-23T11:36:56.624Z,20.20
2023-05-23T11:39:24.345Z,20.24
2023-05-23T11:42:04.622Z,20.57
2023-05-23T11:44:32.025Z,20.81
2023-05-23T11:47:09.170Z,21.00
2023-05-23T11:52:08.365Z,21.35
2023-05-23T11:54:35.972Z,21.31
2023-05-23T11:57:04.041Z,21.58
2023-05-23T11:59:31.616Z,21.74
2023-05-23T12:01:59.051Z,21.58
2023-05-23T12:04:27.294Z,21.72
2023-05-23T12:06:54.883Z,21.57
2023-05-23T12:09:22.437Z,21.57
2023-05-23T12:11:50.504Z,21.67
2023-05-23T12:14:18.459Z,21.22
2023-05-23T12:16:49.673Z,20.87
2023-05-23T12:19:20.217Z,21.02
2023-05-23T12:21:49.501Z,21.42
2023-05-23T12:24:21.876Z,21.32
2023-05-23T12:27:03.964Z,21.76
2023-05-23T12:29:37.260Z,21.46
2023-05-23T12:32:07.500Z,21.63
2023-05-23T12:34:35.047Z,21.56
2023-05-23T12:37:19.054Z,21.67
2023-05-23T12:39:47.364Z,22.14
2023-05-23T12:42:14.803Z,21.84
2023-05-23T12:44:43.807Z,21.72
2023-05-23T12:47:11.692Z,21.39
2023-05-23T12:49:45.419Z,20.90
2023-05-23T12:52:12.962Z,22.07
2023-05-23T12:54:40.501Z,21.99
2023-05-23T12:57:07.945Z,21.65
2023-05-23T12:59:38.086Z,21.27
2023-05-23T13:02:05.864Z,21.16
2023-05-23T13:04:33.668Z,21.85
2023-05-23T13:07:01.103Z,22.39
2023-05-23T13:09:28.521Z,22.52
2023-05-23T13:11:56.513Z,22.82
2023-05-23T13:14:23.978Z,22.31
2023-05-23T13:16:52.292Z,22.21
2023-05-23T13:19:19.937Z,22.54
2023-05-23T13:21:49.548Z,22.30
2023-05-23T13:24:17.900Z,22.31
2023-05-23T13:26:45.498Z,22.04
2023-05-23T13:29:12.956Z,22.58
2023-05-23T13:31:40.384Z,23.19
2023-05-23T13:34:07.809Z,22.92
2023-05-23T13:36:36.097Z,22.68
2023-05-23T13:39:04.956Z,22.97
2023-05-23T13:41:32.375Z,22.52
2023-05-23T13:44:10.013Z,22.96
2023-05-23T13:46:38.466Z,23.70
2023-05-23T13:49:06.172Z,23.09
2023-05-23T13:51:33.863Z,22.31
2023-05-23T13:54:01.816Z,23.04
2023-05-23T13:56:29.292Z,22.46
2023-05-23T13:58:57.896Z,21.96
2023-05-23T14:01:25.378Z,21.75
2023-05-23T14:03:53.292Z,21.73
2023-05-23T14:06:20.950Z,21.44
2023-05-23T14:08:48.981Z,21.64
2023-05-23T14:11:16.038Z,21.53
2023-05-23T14:13:51.434Z,22.00
2023-05-23T14:16:18.914Z,22.28
2023-05-23T14:18:46.613Z,22.01
2023-05-23T14:21:14.011Z,22.27
2023-05-23T14:23:41.798Z,22.31
2023-05-23T14:26:09.373Z,22.60
2023-05-23T14:28:36.990Z,22.35
2023-05-23T14:31:04.382Z,21.86
2023-05-23T14:33:32.022Z,22.30
2023-05-23T14:35:59.579Z,22.30
2023-05-23T14:38:27.427Z,23.02
2023-05-23T14:40:55.343Z,22.73
2023-05-23T14:43:22.881Z,23.05
2023-05-23T14:45:50.425Z,22.94
2023-05-23T14:48:17.972Z,22.46
2023-05-23T14:50:45.366Z,22.78
2023-05-23T14:53:12.915Z,22.40
2023-05-23T14:55:40.762Z,23.38
2023-05-23T14:58:08.909Z,23.44
2023-05-23T15:00:36.352Z,23.43
2023-05-23T15:03:04.787Z,23.09
2023-05-23T15:05:32.455Z,23.07
2023-05-23T15:07:59.924Z,23.08
2023-05-23T15:10:27.372Z,22.48
2023-05-23T15:12:54.956Z,22.29
2023-05-23T15:15:23.642Z,22.33
2023-05-23T15:17:51.483Z,22.83
2023-05-23T15:20:19.132Z,22.88
2023-05-23T15:22:46.629Z,22.55
2023-05-23T15:25:14.032Z,22.04
2023-05-23T15:27:41.930Z,22.06
2023-05-23T15:30:09.768Z,22.15
2023-05-23T15:32:37.235Z,21.48
2023-05-23T15:35:05.173Z,21.45
2023-05-23T15:37:32.618Z,21.66
2023-05-23T15:40:00.139Z,22.14
2023-05-23T15:42:27.565Z,21.75
2023-05-23T15:44:54.956Z,21.50
2023-05-23T15:47:22.521Z,21.86
2023-05-23T15:52:22.764Z,20.80
2023-05-23T15:54:50.192Z,21.19
2023-05-23T15:57:17.683Z,20.95
2023-05-23T15:59:45.138Z,20.43
2023-05-23T16:02:12.644Z,21.54
2023-05-23T16:04:40.117Z,20.94
2023-05-23T16:07:07.565Z,20.75
2023-05-23T16:09:34.977Z,20.67
2023-05-23T16:12:02.385Z,20.32
2023-05-23T16:14:31.552Z,21.09
2023-05-23T16:17:02.912Z,21.20
2023-05-23T16:19:35.743Z,21.49
2023-05-23T16:22:03.255Z,21.54
2023-05-23T16:24:30.717Z,21.20
2023-05-23T16:26:59.277Z,20.22
2023-05-23T16:29:26.729Z,20.51
2023-05-23T16:31:54.118Z,21.21
2023-05-23T16:34:21.490Z,21.12
2023-05-23T16:36:49.043Z,20.80
2023-05-23T16:39:16.629Z,21.23
2023-05-23T16:41:44.095Z,20.60
2023-05-23T16:44:11.462Z,21.01
2023-05-23T16:46:39.101Z,20.95
2023-05-23T16:49:06.496Z,20.44
2023-05-23T16:51:33.956Z,21.14
2023-05-23T16:54:01.355Z,21.20
2023-05-23T16:56:28.846Z,21.00
2023-05-23T16:58:56.958Z,20.57
2023-05-23T17:01:24.520Z,20.44
2023-05-23T17:03:52.170Z,20.10
2023-05-23T17:06:19.770Z,19.83
2023-05-23T17:08:47.125Z,20.52
2023-05-23T17:11:14.617Z,19.98
2023-05-23T17:13:42.720Z,20.04
2023-05-23T17:16:10.614Z,20.00
2023-05-23T17:18:38.208Z,19.79
2023-05-23T17:21:05.599Z,20.06
2023-05-23T17:23:33.036Z,19.89
2023-05-23T17:26:00.513Z,19.80
2023-05-23T17:28:27.836Z,20.12
2023-05-23T17:30:55.529Z,19.66
2023-05-23T17:33:23.147Z,19.34
2023-05-23T17:35:50.623Z,19.43
2023-05-23T17:38:18.574Z,19.25
2023-05-23T17:40:46.281Z,19.43
2023-05-23T17:43:13.897Z,19.36
2023-05-23T17:45:41.562Z,19.04
2023-05-23T17:48:09.008Z,18.89
2023-05-23T17:50:36.490Z,18.79
2023-05-23T17:53:04.503Z,18.98
2023-05-23T17:55:32.052Z,18.95
2023-05-23T17:57:59.505Z,18.81
2023-05-23T18:00:26.912Z,19.10
2023-05-23T18:02:55.092Z,18.53
2023-05-23T18:05:23.737Z,18.96
2023-05-23T18:07:51.234Z,18.68
2023-05-23T18:10:18.699Z,18.35
2023-05-23T18:12:46.613Z,18.05
2023-05-23T18:15:14.031Z,17.87
2023-05-23T18:17:41.730Z,18.09
2023-05-23T18:20:09.795Z,17.69
2023-05-23T18:22:37.249Z,17.70
2023-05-23T18:25:05.127Z,17.61
2023-05-23T18:27:32.782Z,17.63
2023-05-23T18:30:00.181Z,17.56
2023-05-23T18:32:27.552Z,17.41
2023-05-23T18:34:55.029Z,17.39
2023-05-23T18:37:22.461Z,17.14
2023-05-23T18:39:49.830Z,17.15
2023-05-23T18:42:17.384Z,17.11
2023-05-23T18:44:44.831Z,17.31
2023-05-23T18:47:12.662Z,17.02
2023-05-23T18:49:40.141Z,16.92
2023-05-23T18:52:07.659Z,16.74
2023-05-23T18:54:35.532Z,16.69
2023-05-23T18:57:03.392Z,16.71
2023-05-23T18:59:30.840Z,16.67
2023-05-23T19:02:00.240Z,16.33
2023-05-23T19:04:27.805Z,16.35
2023-05-23T19:06:55.439Z,16.31
2023-05-23T19:09:23.031Z,16.22
2023-05-23T19:11:50.596Z,16.10
2023-05-23T19:14:18.104Z,16.27
2023-05-23T19:16:46.275Z,16.01
2023-05-23T19:19:14.614Z,15.94
2023-05-23T19:21:42.312Z,16.09
2023-05-23T19:24:10.046Z,15.83
2023-05-23T19:26:37.902Z,15.95
2023-05-23T19:29:06.379Z,15.93
2023-05-23T19:31:34.305Z,15.69
2023-05-23T19:34:01.741Z,15.61
2023-05-23T19:36:29.122Z,15.50
2023-05-23T19:38:56.765Z,15.52
2023-05-23T19:41:24.208Z,15.45
2023-05-23T19:43:52.045Z,15.35
2023-05-23T19:46:19.516Z,15.46
2023-05-23T19:48:46.953Z,15.32
2023-05-23T19:51:14.415Z,15.35
2023-05-23T19:53:42.508Z,15.13
2023-05-23T19:56:09.878Z,15.19
2023-05-23T19:58:37.281Z,15.10
2023-05-23T20:01:04.846Z,15.07
2023-05-23T20:03:32.822Z,14.99
2023-05-23T20:06:00.211Z,15.07
2023-05-23T20:08:27.612Z,14.82
2023-05-23T20:10:56.120Z,14.70
2023-05-23T20:13:23.518Z,14.64
2023-05-23T20:15:51.126Z,14.65
2023-05-23T20:18:18.566Z,14.62
2023-05-23T20:20:46.044Z,14.54
2023-05-23T20:23:13.673Z,14.59
2023-05-23T20:25:41.710Z,14.39
2023-05-23T20:28:09.063Z,14.44
2023-05-23T20:30:36.836Z,14.48
2023-05-23T20:33:04.415Z,14.24
2023-05-23T20:35:32.206Z,14.25
2023-05-23T20:37:59.670Z,14.23
2023-05-23T20:40:29.738Z,14.14
2023-05-23T20:43:00.777Z,14.09
2023-05-23T20:45:28.173Z,14.02
2023-05-23T20:47:55.600Z,14.02
2023-05-23T20:50:23.039Z,13.99
2023-05-23T20:52:51.001Z,13.86
2023-05-23T20:55:18.959Z,13.71
2023-05-23T20:57:46.459Z,13.86
2023-05-23T21:00:14.272Z,13.85
2023-05-23T21:02:42.405Z,13.70
2023-05-23T21:05:11.562Z,13.61
2023-05-23T21:07:39.176Z,13.53
2023-05-23T21:10:07.097Z,13.56
2023-05-23T21:12:34.650Z,13.45
2023-05-23T21:15:02.220Z,13.34
2023-05-23T21:17:29.682Z,13.48
2023-05-23T21:19:57.126Z,13.34
2023-05-23T21:22:24.697Z,13.38
2023-05-23T21:24:52.184Z,13.22
2023-05-23T21:27:19.785Z,13.09
2023-05-23T21:29:47.290Z,13.10
2023-05-23T21:32:14.802Z,13.15
2023-05-23T21:34:42.200Z,13.22
2023-05-23T21:37:09.611Z,13.09
2023-05-23T21:39:50.665Z,13.14
2023-05-23T21:42:19.355Z,13.25
2023-05-23T21:44:46.868Z,13.13
2023-05-23T21:47:14.300Z,12.98
2023-05-23T21:49:41.680Z,13.06
2023-05-23T21:52:09.279Z,12.91
2023-05-23T21:54:36.675Z,12.81
2023-05-23T21:57:04.266Z,12.85
2023-05-23T21:59:31.663Z,12.84
2023-05-23T22:01:59.732Z,12.79
2023-05-23T22:04:27.255Z,12.83
2023-05-23T22:06:54.926Z,12.77
2023-05-23T22:09:22.313Z,12.89
2023-05-23T22:11:49.670Z,12.80
2023-05-23T22:14:17.121Z,12.79
2023-05-23T22:16:44.705Z,12.69
2023-05-23T22:19:12.652Z,12.69
2023-05-23T22:21:40.150Z,12.70
2023-05-23T22:24:07.660Z,12.78
2023-05-23T22:26:35.099Z,12.80
2023-05-23T22:29:02.650Z,12.65
2023-05-23T22:31:30.149Z,12.75
2023-05-23T22:33:57.676Z,12.57
2023-05-23T22:36:25.055Z,12.60
2023-05-23T22:38:52.467Z,12.46
2023-05-23T22:41:20.042Z,12.47
2023-05-23T22:43:47.486Z,12.41
2023-05-23T22:46:14.987Z,12.52
2023-05-23T22:48:42.912Z,12.48
2023-05-23T22:51:12.546Z,12.39
2023-05-23T22:53:41.217Z,12.53
2023-05-23T22:56:08.691Z,12.55
2023-05-23T22:58:36.200Z,12.46
2023-05-23T23:01:03.638Z,12.42
2023-05-23T23:03:31.048Z,12.59
2023-05-23T23:05:59.340Z,12.52
2023-05-23T23:08:27.367Z,12.59
2023-05-23T23:10:54.752Z,12.57
2023-05-23T23:13:22.159Z,12.59
2023-05-23T23:15:50.257Z,12.59
2023-05-23T23:18:18.942Z,12.55
2023-05-23T23:20:47.102Z,12.53
2023-05-23T23:23:15.010Z,12.45
2023-05-23T23:25:42.534Z,12.52
2023-05-23T23:28:09.878Z,12.42
2023-05-23T23:30:37.342Z,12.39
2023-05-23T23:33:04.839Z,12.53
2023-05-23T23:35:32.285Z,12.43
2023-05-23T23:37:59.705Z,12.29
2023-05-23T23:40:27.249Z,12.29
2023-05-23T23:42:54.968Z,12.22
2023-05-23T23:45:22.465Z,12.31
2023-05-23T23:47:49.903Z,12.22
2023-05-23T23:50:17.500Z,12.20
2023-05-23T23:52:44.955Z,12.06
2023-05-23T23:55:12.398Z,12.12
2023-05-23T23:57:39.818Z,12.08
